createdAt,value
2022-08-13T00:01:11.631Z,18.60
2022-08-13T00:04:01.192Z,18.70
2022-08-13T00:06:28.779Z,18.60
2022-08-13T00:08:59.085Z,18.60
2022-08-13T00:11:27.399Z,18.50
2022-08-13T00:14:04.171Z,18.50
2022-08-13T00:16:31.129Z,18.40
2022-08-13T00:18:59.443Z,18.40
2022-08-13T00:21:57.662Z,18.40
2022-08-13T00:24:31.742Z,18.30
2022-08-13T00:26:58.847Z,18.20
2022-08-13T00:29:26.034Z,18.20
2022-08-13T00:31:53.078Z,18.60
2022-08-13T00:34:21.777Z,18.40
2022-08-13T00:36:51.951Z,18.30
2022-08-13T00:40:16.396Z,18.40
2022-08-13T00:42:22.897Z,18.40
2022-08-13T00:44:50.024Z,18.70
2022-08-13T00:47:19.023Z,18.50
2022-08-13T00:49:49.739Z,18.50
2022-08-13T00:52:26.875Z,18.50
2022-08-13T00:54:56.175Z,18.50
2022-08-13T00:57:25.866Z,18.60
2022-08-13T00:59:56.856Z,18.40
2022-08-13T01:02:32.921Z,18.20
2022-08-13T01:05:03.366Z,18.50
2022-08-13T01:07:47.514Z,18.60
2022-08-13T01:10:20.103Z,18.50
2022-08-13T01:12:50.066Z,18.30
2022-08-13T01:15:17.207Z,18.30
2022-08-13T01:17:50.451Z,18.40
2022-08-13T01:20:31.752Z,18.40
2022-08-13T01:23:00.171Z,18.40
2022-08-13T01:25:27.067Z,18.40
2022-08-13T01:27:56.969Z,18.50
2022-08-13T01:30:25.215Z,18.40
2022-08-13T01:32:57.747Z,18.30
2022-08-13T01:35:25.883Z,18.40
2022-08-13T01:37:58.345Z,18.60
2022-08-13T01:40:27.066Z,18.60
2022-08-13T01:42:56.842Z,18.40
2022-08-13T01:45:24.333Z,18.30
2022-08-13T01:47:57.891Z,18.30
2022-08-13T01:50:32.848Z,18.40
2022-08-13T01:53:05.908Z,18.40
2022-08-13T01:56:15.499Z,18.40
2022-08-13T01:58:34.939Z,18.50
2022-08-13T02:01:22.242Z,18.40
2022-08-13T02:04:10.768Z,18.20
2022-08-13T02:06:37.774Z,18.10
2022-08-13T02:09:23.371Z,18.00
2022-08-13T02:11:52.357Z,18.10
2022-08-13T02:14:22.903Z,18.10
2022-08-13T02:16:53.857Z,18.00
2022-08-13T02:19:30.214Z,18.00
2022-08-13T02:22:02.433Z,17.90
2022-08-13T02:24:34.936Z,18.10
2022-08-13T02:27:01.855Z,18.10
2022-08-13T02:29:28.799Z,18.10
2022-08-13T02:32:15.184Z,18.20
2022-08-13T02:34:50.938Z,18.10
2022-08-13T02:37:23.241Z,18.00
2022-08-13T02:40:08.072Z,18.10
2022-08-13T02:42:36.856Z,18.20
2022-08-13T02:45:04.788Z,18.20
2022-08-13T02:47:44.166Z,18.30
2022-08-13T02:50:12.327Z,18.30
2022-08-13T02:52:49.884Z,18.30
2022-08-13T02:55:26.397Z,18.20
2022-08-13T02:58:00.907Z,18.20
2022-08-13T03:00:30.823Z,18.20
2022-08-13T03:03:02.115Z,18.10
2022-08-13T03:05:43.200Z,18.10
2022-08-13T03:08:36.522Z,18.20
2022-08-13T03:11:05.684Z,18.10
2022-08-13T03:13:44.110Z,18.10
2022-08-13T03:16:17.773Z,18.00
2022-08-13T03:18:52.292Z,18.00
2022-08-13T03:21:33.304Z,18.10
2022-08-13T03:24:22.625Z,18.20
2022-08-13T03:26:58.534Z,18.00
2022-08-13T03:29:57.600Z,17.90
2022-08-13T03:32:13.957Z,17.80
2022-08-13T03:34:41.910Z,17.80
2022-08-13T03:37:09.925Z,17.80
2022-08-13T03:39:39.988Z,17.70
2022-08-13T03:42:13.114Z,17.70
2022-08-13T03:44:46.849Z,17.60
2022-08-13T03:47:29.623Z,17.60
2022-08-13T03:49:59.994Z,17.70
2022-08-13T03:52:33.536Z,17.60
2022-08-13T03:55:06.228Z,17.50
2022-08-13T03:57:55.238Z,17.50
2022-08-13T04:00:21.912Z,17.50
2022-08-13T04:02:50.202Z,17.50
2022-08-13T04:05:17.218Z,17.50
2022-08-13T04:07:45.040Z,17.60
2022-08-13T04:10:13.648Z,17.70
2022-08-13T04:12:40.910Z,17.80
2022-08-13T04:15:08.369Z,17.70
2022-08-13T04:17:35.387Z,17.90
2022-08-13T04:20:11.664Z,17.90
2022-08-13T04:22:42.236Z,18.10
2022-08-13T04:25:24.839Z,18.20
2022-08-13T04:28:03.216Z,18.40
2022-08-13T04:30:30.610Z,18.50
2022-08-13T04:33:21.667Z,18.60
2022-08-13T04:35:58.578Z,18.80
2022-08-13T04:38:25.832Z,18.80
2022-08-13T04:40:54.811Z,18.90
2022-08-13T04:43:25.997Z,18.90
2022-08-13T04:45:52.845Z,18.90
2022-08-13T04:48:19.753Z,19.00
2022-08-13T04:50:49.047Z,19.20
2022-08-13T04:53:29.373Z,19.10
2022-08-13T04:56:13.382Z,19.10
2022-08-13T04:58:46.071Z,19.30
2022-08-13T05:01:48.797Z,19.30
2022-08-13T05:04:11.714Z,19.30
2022-08-13T05:06:50.801Z,19.30
2022-08-13T05:09:20.213Z,19.40
2022-08-13T05:12:04.869Z,19.40
2022-08-13T05:14:33.578Z,19.70
2022-08-13T05:17:02.067Z,19.80
2022-08-13T05:19:35.497Z,19.90
2022-08-13T05:22:14.597Z,20.00
2022-08-13T05:26:18.788Z,20.20
2022-08-13T05:27:33.130Z,20.20
2022-08-13T05:30:28.954Z,20.40
2022-08-13T05:32:50.671Z,20.70
2022-08-13T05:35:17.854Z,20.90
2022-08-13T05:38:14.447Z,21.00
2022-08-13T05:40:53.336Z,21.20
2022-08-13T05:43:24.874Z,21.10
2022-08-13T05:46:06.991Z,21.50
2022-08-13T05:48:38.237Z,21.30
2022-08-13T05:51:06.402Z,21.10
2022-08-13T05:56:04.697Z,21.30
2022-08-13T05:56:39.495Z,21.20
2022-08-13T05:59:06.789Z,21.20
2022-08-13T06:01:40.070Z,21.30
2022-08-13T06:04:38.004Z,21.40
2022-08-13T06:07:04.907Z,21.60
2022-08-13T06:09:32.971Z,21.70
2022-08-13T06:12:25.685Z,21.50
2022-08-13T06:14:53.525Z,21.70
2022-08-13T06:17:23.900Z,21.80
2022-08-13T06:19:52.151Z,21.80
2022-08-13T06:22:24.195Z,22.00
2022-08-13T06:24:52.678Z,22.00
2022-08-13T06:27:56.419Z,21.80
2022-08-13T06:30:13.177Z,22.00
2022-08-13T06:34:08.426Z,22.40
2022-08-13T06:35:47.538Z,22.80
2022-08-13T06:38:22.363Z,22.60
2022-08-13T06:40:56.324Z,23.00
2022-08-13T06:43:24.329Z,22.80
2022-08-13T06:45:54.704Z,22.90
2022-08-13T06:48:33.967Z,22.70
2022-08-13T06:51:03.212Z,23.00
2022-08-13T06:54:21.395Z,23.00
2022-08-13T06:56:35.993Z,23.10
2022-08-13T06:59:13.095Z,23.10
2022-08-13T07:02:05.473Z,23.00
2022-08-13T07:04:33.806Z,23.10
2022-08-13T07:07:03.681Z,23.40
2022-08-13T07:09:42.983Z,23.60
2022-08-13T07:12:12.474Z,23.30
2022-08-13T07:14:42.855Z,23.40
2022-08-13T07:17:14.922Z,23.40
2022-08-13T07:20:05.046Z,23.70
2022-08-13T07:24:38.049Z,23.70
2022-08-13T07:25:16.703Z,24.00
2022-08-13T07:27:54.091Z,23.60
2022-08-13T07:30:22.148Z,23.50
2022-08-13T07:32:55.738Z,23.90
2022-08-13T07:35:23.097Z,24.00
2022-08-13T07:37:52.930Z,24.00
2022-08-13T07:40:21.517Z,23.70
2022-08-13T07:42:49.833Z,23.70
2022-08-13T07:46:26.051Z,24.00
2022-08-13T07:48:16.650Z,24.60
2022-08-13T07:51:04.882Z,24.70
2022-08-13T07:53:54.797Z,24.70
2022-08-13T07:56:29.519Z,24.50
2022-08-13T07:59:04.979Z,24.50
2022-08-13T08:02:21.844Z,24.70
2022-08-13T08:04:29.712Z,24.60
2022-08-13T08:06:58.594Z,24.60
2022-08-13T08:09:30.659Z,24.50
2022-08-13T08:12:00.474Z,24.70
2022-08-13T08:14:31.306Z,24.90
2022-08-13T08:16:59.466Z,25.00
2022-08-13T08:20:13.553Z,25.10
2022-08-13T08:22:26.005Z,25.20
2022-08-13T08:24:54.289Z,25.10
2022-08-13T08:28:07.334Z,24.60
2022-08-13T08:30:12.803Z,24.60
2022-08-13T08:32:42.272Z,24.30
2022-08-13T08:35:12.711Z,24.20
2022-08-13T08:37:39.666Z,24.50
2022-08-13T08:40:09.538Z,24.50
2022-08-13T08:43:21.438Z,25.00
2022-08-13T08:46:11.025Z,25.10
2022-08-13T08:48:34.027Z,25.20
2022-08-13T08:51:01.601Z,25.10
2022-08-13T08:54:10.974Z,25.20
2022-08-13T08:56:22.234Z,24.80
2022-08-13T08:58:54.482Z,24.90
2022-08-13T09:01:22.172Z,24.90
2022-08-13T09:03:57.663Z,24.70
2022-08-13T09:06:33.852Z,25.40
2022-08-13T09:09:18.990Z,25.50
2022-08-13T09:11:55.492Z,25.80
2022-08-13T09:14:25.820Z,25.50
2022-08-13T09:16:59.020Z,25.30
2022-08-13T09:19:33.742Z,25.50
2022-08-13T09:22:14.025Z,25.40
2022-08-13T09:24:43.605Z,25.60
2022-08-13T09:27:19.996Z,25.40
2022-08-13T09:29:49.467Z,25.60
2022-08-13T09:32:32.401Z,25.80
2022-08-13T09:35:05.625Z,25.80
2022-08-13T09:37:47.670Z,25.70
2022-08-13T09:40:32.427Z,25.90
2022-08-13T09:43:44.979Z,26.10
2022-08-13T09:46:17.372Z,26.00
2022-08-13T09:48:47.623Z,26.10
2022-08-13T09:51:54.046Z,26.30
2022-08-13T09:54:06.798Z,26.30
2022-08-13T09:56:37.550Z,26.30
2022-08-13T09:59:15.540Z,26.30
2022-08-13T10:01:58.466Z,26.30
2022-08-13T10:04:27.629Z,26.10
2022-08-13T10:06:58.045Z,26.20
2022-08-13T10:09:29.660Z,26.20
2022-08-13T10:12:17.194Z,26.10
2022-08-13T10:14:56.744Z,26.40
2022-08-13T10:17:47.936Z,26.30
2022-08-13T10:20:16.317Z,26.60
2022-08-13T10:22:43.927Z,27.10
2022-08-13T10:25:12.425Z,27.00
2022-08-13T10:27:57.760Z,26.80
2022-08-13T10:30:59.184Z,26.60
2022-08-13T10:33:15.913Z,26.30
2022-08-13T10:35:48.616Z,26.70
2022-08-13T10:38:23.768Z,26.70
2022-08-13T10:40:55.176Z,26.60
2022-08-13T10:43:24.945Z,26.40
2022-08-13T10:45:54.498Z,26.60
2022-08-13T10:48:21.258Z,26.80
2022-08-13T10:50:50.551Z,27.00
2022-08-13T10:53:19.906Z,27.40
2022-08-13T10:55:50.417Z,27.10
2022-08-13T10:58:45.225Z,27.20
2022-08-13T11:01:08.379Z,27.30
2022-08-13T11:03:48.831Z,26.80
2022-08-13T11:06:16.715Z,27.60
2022-08-13T11:08:44.362Z,27.90
2022-08-13T11:11:30.477Z,27.70
2022-08-13T11:13:58.622Z,27.80
2022-08-13T11:16:28.158Z,28.10
2022-08-13T11:18:55.551Z,27.80
2022-08-13T11:22:15.859Z,27.80
2022-08-13T11:24:12.403Z,27.60
2022-08-13T11:26:43.022Z,27.40
2022-08-13T11:29:10.054Z,27.20
2022-08-13T11:31:59.037Z,27.30
2022-08-13T11:34:25.097Z,27.60
2022-08-13T11:36:52.068Z,27.60
2022-08-13T11:39:19.611Z,27.90
2022-08-13T11:42:05.556Z,27.80
2022-08-13T11:44:33.343Z,27.40
2022-08-13T11:47:00.215Z,28.10
2022-08-13T11:49:36.608Z,28.10
2022-08-13T11:52:09.471Z,27.60
2022-08-13T11:54:37.291Z,27.40
2022-08-13T11:57:08.207Z,27.30
2022-08-13T11:59:41.790Z,27.60
2022-08-13T12:02:15.229Z,27.50
2022-08-13T12:04:49.471Z,27.50
2022-08-13T12:07:26.795Z,27.80
2022-08-13T12:09:58.326Z,27.50
2022-08-13T12:12:31.093Z,27.30
2022-08-13T12:15:08.325Z,27.20
2022-08-13T12:17:49.510Z,27.00
2022-08-13T12:20:24.436Z,27.10
2022-08-13T12:22:58.039Z,27.20
2022-08-13T12:25:32.897Z,27.60
2022-08-13T12:28:27.991Z,27.60
2022-08-13T12:31:06.043Z,27.60
2022-08-13T12:33:40.609Z,27.90
2022-08-13T12:36:09.905Z,28.00
2022-08-13T12:38:37.196Z,28.20
2022-08-13T12:41:13.605Z,28.30
2022-08-13T12:44:08.709Z,28.00
2022-08-13T12:46:33.233Z,28.10
2022-08-13T12:49:03.693Z,27.80
2022-08-13T12:51:40.392Z,27.80
2022-08-13T12:54:39.801Z,27.70
2022-08-13T12:57:05.412Z,27.30
2022-08-13T12:59:32.747Z,26.90
2022-08-13T13:02:05.849Z,26.90
2022-08-13T13:04:34.705Z,27.00
2022-08-13T13:07:07.106Z,27.10
2022-08-13T13:09:48.760Z,27.10
2022-08-13T13:12:16.413Z,26.90
2022-08-13T13:14:43.404Z,27.00
2022-08-13T13:18:09.754Z,27.00
2022-08-13T13:20:06.260Z,27.10
2022-08-13T13:22:38.074Z,27.00
2022-08-13T13:25:06.885Z,27.00
2022-08-13T13:27:45.073Z,26.60
2022-08-13T13:30:13.382Z,26.70
2022-08-13T13:32:46.616Z,26.60
2022-08-13T13:35:37.588Z,26.60
2022-08-13T13:38:07.714Z,26.60
2022-08-13T13:40:44.222Z,26.50
2022-08-13T13:43:21.280Z,26.50
2022-08-13T13:45:53.853Z,26.60
2022-08-13T13:48:30.036Z,26.70
2022-08-13T13:50:59.706Z,26.60
2022-08-13T13:53:47.028Z,26.60
2022-08-13T13:56:17.372Z,26.60
2022-08-13T13:58:54.875Z,26.50
2022-08-13T14:01:23.759Z,26.50
2022-08-13T14:03:51.014Z,26.50
2022-08-13T14:06:27.362Z,26.60
2022-08-13T14:08:55.037Z,26.50
2022-08-13T14:11:22.616Z,26.50
2022-08-13T14:13:49.591Z,26.60
2022-08-13T14:16:18.298Z,26.60
2022-08-13T14:18:46.322Z,26.50
2022-08-13T14:21:14.569Z,26.50
2022-08-13T14:23:43.103Z,26.50
2022-08-13T14:26:15.040Z,26.50
2022-08-13T14:28:47.638Z,26.40
2022-08-13T14:31:15.408Z,26.50
2022-08-13T14:34:00.503Z,26.50
2022-08-13T14:36:30.503Z,26.50
2022-08-13T14:39:05.973Z,26.50
2022-08-13T14:41:48.449Z,26.50
2022-08-13T14:44:51.408Z,26.50
2022-08-13T14:47:08.567Z,26.50
2022-08-13T14:49:56.292Z,26.60
2022-08-13T14:52:38.799Z,26.50
2022-08-13T14:55:10.104Z,26.70
2022-08-13T14:57:39.653Z,26.60
2022-08-13T15:00:25.546Z,26.60
2022-08-13T15:03:16.008Z,26.80
2022-08-13T15:05:53.085Z,27.10
2022-08-13T15:08:30.435Z,27.00
2022-08-13T15:11:06.596Z,27.30
2022-08-13T15:13:46.383Z,27.80
2022-08-13T15:16:32.777Z,27.70
2022-08-13T15:19:16.701Z,27.50
2022-08-13T15:21:48.890Z,27.50
2022-08-13T15:24:40.337Z,27.50
2022-08-13T15:27:31.452Z,27.30
2022-08-13T15:30:15.448Z,27.20
2022-08-13T15:32:53.975Z,27.00
2022-08-13T15:35:35.932Z,26.90
2022-08-13T15:38:11.776Z,26.90
2022-08-13T15:40:51.335Z,26.90
2022-08-13T15:43:36.514Z,26.80
2022-08-13T15:46:06.250Z,27.00
2022-08-13T15:48:34.180Z,27.10
2022-08-13T15:51:01.214Z,27.00
2022-08-13T15:53:30.051Z,27.00
2022-08-13T15:56:03.416Z,26.90
2022-08-13T15:58:34.317Z,26.90
2022-08-13T16:01:20.592Z,26.90
2022-08-13T16:03:55.247Z,26.90
2022-08-13T16:06:28.032Z,26.80
2022-08-13T16:08:56.969Z,26.70
2022-08-13T16:11:42.862Z,26.70
2022-08-13T16:14:21.868Z,26.70
2022-08-13T16:16:58.727Z,26.70
2022-08-13T16:19:52.097Z,26.80
2022-08-13T16:22:18.677Z,26.60
2022-08-13T16:24:51.105Z,26.60
2022-08-13T16:27:24.410Z,26.50
2022-08-13T16:29:53.876Z,26.50
2022-08-13T16:32:29.107Z,26.50
2022-08-13T16:34:57.461Z,26.40
2022-08-13T16:37:25.577Z,26.20
2022-08-13T16:40:17.946Z,26.10
2022-08-13T16:42:48.230Z,26.00
2022-08-13T16:45:16.883Z,25.90
2022-08-13T16:47:44.917Z,25.90
2022-08-13T16:50:19.404Z,25.90
2022-08-13T16:52:50.300Z,25.80
2022-08-13T16:55:24.273Z,25.80
2022-08-13T16:57:53.792Z,25.60
2022-08-13T17:00:26.313Z,25.50
2022-08-13T17:02:54.948Z,25.40
2022-08-13T17:05:27.119Z,25.30
2022-08-13T17:07:54.365Z,25.20
2022-08-13T17:10:21.874Z,25.00
2022-08-13T17:12:48.845Z,24.70
2022-08-13T17:15:15.746Z,24.50
2022-08-13T17:17:48.163Z,24.40
2022-08-13T17:20:23.428Z,24.40
2022-08-13T17:22:52.685Z,24.50
2022-08-13T17:25:20.494Z,24.40
2022-08-13T17:27:52.140Z,24.40
2022-08-13T17:30:20.817Z,24.20
2022-08-13T17:32:48.489Z,24.00
2022-08-13T17:35:17.428Z,23.90
2022-08-13T17:37:58.552Z,23.90
2022-08-13T17:40:34.407Z,23.90
2022-08-13T17:44:01.539Z,23.60
2022-08-13T17:45:59.640Z,23.60
2022-08-13T17:48:39.093Z,23.40
2022-08-13T17:51:22.172Z,23.30
2022-08-13T17:53:49.364Z,23.30
2022-08-13T17:56:16.292Z,23.30
2022-08-13T17:58:45.412Z,23.30
2022-08-13T18:01:22.899Z,23.10
2022-08-13T18:04:00.172Z,22.90
2022-08-13T18:06:31.270Z,22.80
2022-08-13T18:09:03.228Z,22.60
2022-08-13T18:14:21.400Z,22.60
2022-08-13T18:19:48.194Z,22.50
2022-08-13T18:22:15.130Z,22.60
2022-08-13T18:24:41.976Z,22.50
2022-08-13T18:27:18.719Z,22.40
2022-08-13T18:29:59.676Z,22.40
2022-08-13T18:32:32.442Z,22.20
2022-08-13T18:35:00.424Z,22.10
2022-08-13T18:37:29.403Z,22.20
2022-08-13T18:39:56.857Z,22.20
2022-08-13T18:42:32.636Z,22.30
2022-08-13T18:45:55.932Z,22.20
2022-08-13T18:48:02.347Z,22.20
2022-08-13T18:50:31.311Z,22.00
2022-08-13T18:53:32.767Z,21.90
2022-08-13T18:56:06.941Z,22.00
2022-08-13T18:58:41.409Z,21.90
2022-08-13T19:01:15.355Z,21.90
2022-08-13T19:03:58.934Z,21.80
2022-08-13T19:06:29.828Z,21.80
2022-08-13T19:08:57.553Z,21.80
2022-08-13T19:11:24.733Z,21.70
2022-08-13T19:13:53.316Z,21.70
2022-08-13T19:16:20.329Z,21.80
2022-08-13T19:21:53.369Z,21.70
2022-08-13T19:24:06.859Z,21.50
2022-08-13T19:26:53.666Z,21.60
2022-08-13T19:29:21.450Z,21.40
2022-08-13T19:31:48.920Z,21.50
2022-08-13T19:34:29.453Z,21.60
2022-08-13T19:37:05.304Z,21.60
2022-08-13T19:39:44.734Z,21.60
2022-08-13T19:42:24.418Z,21.30
2022-08-13T19:45:00.644Z,21.50
2022-08-13T19:47:59.697Z,21.50
2022-08-13T19:50:19.314Z,21.50
2022-08-13T19:52:47.291Z,21.60
2022-08-13T19:55:52.750Z,21.50
2022-08-13T19:58:04.046Z,21.50
2022-08-13T20:00:31.443Z,21.50
2022-08-13T20:03:03.481Z,21.50
2022-08-13T20:05:51.194Z,21.30
2022-08-13T20:08:35.454Z,21.20
2022-08-13T20:11:21.467Z,21.20
2022-08-13T20:13:55.421Z,21.10
2022-08-13T20:16:28.693Z,21.20
2022-08-13T20:18:56.778Z,21.10
2022-08-13T20:21:45.379Z,21.20
2022-08-13T20:25:44.940Z,21.20
2022-08-13T20:27:17.935Z,21.20
2022-08-13T20:29:59.691Z,21.20
2022-08-13T20:32:33.311Z,21.20
2022-08-13T20:35:08.203Z,21.10
2022-08-13T20:37:53.071Z,21.10
2022-08-13T20:40:29.006Z,21.00
2022-08-13T20:43:00.146Z,20.90
2022-08-13T20:45:43.240Z,20.80
2022-08-13T20:48:25.370Z,20.80
2022-08-13T20:51:00.007Z,20.70
2022-08-13T20:53:26.880Z,20.40
2022-08-13T20:55:59.909Z,20.40
2022-08-13T21:00:42.837Z,20.30
2022-08-13T21:01:20.800Z,20.30
2022-08-13T21:03:47.651Z,20.10
2022-08-13T21:06:14.473Z,20.10
2022-08-13T21:08:53.210Z,20.00
2022-08-13T21:11:22.227Z,19.90
2022-08-13T21:13:49.394Z,19.80
2022-08-13T21:16:18.347Z,19.80
2022-08-13T21:19:36.533Z,19.50
2022-08-13T21:21:58.304Z,19.50
2022-08-13T21:24:33.429Z,19.60
2022-08-13T21:27:24.667Z,19.50
2022-08-13T21:29:50.525Z,19.50
2022-08-13T21:32:19.301Z,19.40
2022-08-13T21:34:49.863Z,19.30
2022-08-13T21:37:23.688Z,19.20
2022-08-13T21:39:56.257Z,19.40
2022-08-13T21:42:34.891Z,19.20
2022-08-13T21:45:08.137Z,19.20
2022-08-13T21:47:46.998Z,19.20
2022-08-13T21:50:32.187Z,19.10
2022-08-13T21:53:01.253Z,19.00
2022-08-13T21:55:33.257Z,19.00
2022-08-13T21:58:01.178Z,19.00
2022-08-13T22:00:32.486Z,19.00
2022-08-13T22:03:06.111Z,18.90
2022-08-13T22:05:59.709Z,19.10
2022-08-13T22:08:30.069Z,19.10
2022-08-13T22:10:57.952Z,19.10
2022-08-13T22:13:25.706Z,19.10
2022-08-13T22:15:55.157Z,19.10
2022-08-13T22:18:27.583Z,19.20
2022-08-13T22:20:56.646Z,19.20
2022-08-13T22:23:26.606Z,19.20
2022-08-13T22:25:59.128Z,19.10
2022-08-13T22:28:27.127Z,19.20
2022-08-13T22:30:58.810Z,19.20
2022-08-13T22:33:27.893Z,19.20
2022-08-13T22:35:57.703Z,19.30
2022-08-13T22:38:25.827Z,19.30
2022-08-13T22:40:59.274Z,19.20
2022-08-13T22:43:43.951Z,19.10
2022-08-13T22:46:13.541Z,19.30
2022-08-13T22:48:40.689Z,19.20
2022-08-13T22:51:11.400Z,19.20
2022-08-13T22:53:42.302Z,19.20
2022-08-13T22:56:13.140Z,19.10
2022-08-13T22:58:42.347Z,19.10
2022-08-13T23:01:11.158Z,19.00
2022-08-13T23:03:38.887Z,19.00
2022-08-13T23:06:34.992Z,18.90
2022-08-13T23:08:53.844Z,18.90
2022-08-13T23:11:20.700Z,19.00
2022-08-13T23:13:48.119Z,19.00
2022-08-13T23:16:19.936Z,19.00
2022-08-13T23:18:51.667Z,19.10
2022-08-13T23:21:19.282Z,19.00
2022-08-13T23:23:49.620Z,19.00
2022-08-13T23:26:18.040Z,18.90
2022-08-13T23:28:46.047Z,18.90
2022-08-13T23:31:13.701Z,18.90
2022-08-13T23:33:41.852Z,19.00
2022-08-13T23:36:10.428Z,18.90
2022-08-13T23:38:46.466Z,18.90
2022-08-13T23:41:13.558Z,19.10
2022-08-13T23:43:40.550Z,19.00
2022-08-13T23:46:09.062Z,19.00
2022-08-13T23:48:35.960Z,19.00
2022-08-13T23:51:04.477Z,18.90
2022-08-13T23:53:32.024Z,19.00
2022-08-13T23:55:59.856Z,19.10
2022-08-13T23:58:34.459Z,18.80
